createdAt,value
2022-09-05T00:00:05.235Z,100546.31
2022-09-05T00:02:41.756Z,100543.47
2022-09-05T00:06:02.563Z,100544.44
2022-09-05T00:08:47.769Z,100550.31
2022-09-05T00:11:41.126Z,100546.56
2022-09-05T00:15:16.246Z,100543.22
2022-09-05T00:17:47.217Z,100544.88
2022-09-05T00:24:22.455Z,100550.44
2022-09-05T00:24:29.932Z,100555.50
2022-09-05T00:26:29.332Z,100546.28
2022-09-05T00:29:11.540Z,100546.28
2022-09-05T00:31:57.651Z,100545.56
2022-09-05T00:34:47.507Z,100541.53
2022-09-05T00:37:28.375Z,100542.38
2022-09-05T00:40:18.347Z,100545.28
2022-09-05T00:42:49.839Z,100547.25
2022-09-05T00:45:25.105Z,100543.19
2022-09-05T00:47:59.735Z,100546.97
2022-09-05T00:50:34.414Z,100543.97
2022-09-05T00:53:08.926Z,100545.53
2022-09-05T00:55:48.820Z,100541.41
2022-09-05T00:58:40.210Z,100542.06
2022-09-05T01:01:26.118Z,100542.91
2022-09-05T01:04:20.671Z,100544.34
2022-09-05T01:07:13.443Z,100539.47
2022-09-05T01:09:53.598Z,100535.50
2022-09-05T01:12:53.414Z,100538.84
2022-09-05T01:15:32.160Z,100536.44
2022-09-05T01:18:12.608Z,100540.44
2022-09-05T01:21:02.707Z,100537.78
2022-09-05T01:24:08.937Z,100534.59
2022-09-05T01:26:58.419Z,100532.59
2022-09-05T01:29:35.711Z,100533.78
2022-09-05T01:32:16.813Z,100522.13
2022-09-05T01:34:56.966Z,100536.59
2022-09-05T01:37:37.352Z,100532.06
2022-09-05T01:40:19.695Z,100538.09
2022-09-05T01:43:06.967Z,100533.25
2022-09-05T01:45:50.591Z,100542.50
2022-09-05T01:48:31.246Z,100539.44
2022-09-05T01:51:28.634Z,100536.19
2022-09-05T01:54:23.859Z,100538.44
2022-09-05T01:57:04.470Z,100532.66
2022-09-05T01:59:45.249Z,100531.84
2022-09-05T02:02:37.573Z,100530.19
2022-09-05T02:05:48.208Z,100528.16
2022-09-05T02:08:35.064Z,100516.28
2022-09-05T02:11:06.078Z,100521.97
2022-09-05T02:13:57.336Z,100526.94
2022-09-05T02:16:33.492Z,100521.38
2022-09-05T02:19:09.865Z,100519.50
2022-09-05T02:21:56.180Z,100513.91
2022-09-05T02:24:29.066Z,100515.06
2022-09-05T02:27:31.574Z,100509.31
2022-09-05T02:30:08.657Z,100514.69
2022-09-05T02:32:47.113Z,100515.50
2022-09-05T02:35:22.865Z,100507.75
2022-09-05T02:39:49.888Z,100513.56
2022-09-05T02:45:06.890Z,100505.88
2022-09-05T02:45:10.845Z,100503.09
2022-09-05T02:46:38.721Z,100513.16
2022-09-05T02:49:41.862Z,100504.44
2022-09-05T02:57:27.163Z,100506.78
2022-09-05T02:57:47.031Z,100502.84
2022-09-05T02:58:05.752Z,100510.97
2022-09-05T03:00:42.252Z,100514.97
2022-09-05T03:03:27.671Z,100510.84
2022-09-05T03:06:01.188Z,100517.91
2022-09-05T03:08:46.294Z,100515.72
2022-09-05T03:11:44.403Z,100522.19
2022-09-05T03:15:00.568Z,100516.31
2022-09-05T03:17:53.374Z,100520.91
2022-09-05T03:20:51.203Z,100525.44
2022-09-05T03:23:52.616Z,100528.00
2022-09-05T03:27:04.739Z,100522.13
2022-09-05T03:30:12.026Z,100519.78
2022-09-05T03:33:12.272Z,100523.63
2022-09-05T03:36:28.209Z,100531.91
2022-09-05T03:39:23.012Z,100523.63
2022-09-05T03:42:16.982Z,100534.72
2022-09-05T03:45:26.979Z,100524.53
2022-09-05T03:48:32.655Z,100528.75
2022-09-05T03:57:13.566Z,100526.41
2022-09-05T03:57:28.412Z,100523.28
2022-09-05T03:57:41.398Z,100528.81
2022-09-05T04:00:20.737Z,100519.75
2022-09-05T04:08:06.280Z,100517.84
2022-09-05T04:08:18.930Z,100516.31
2022-09-05T04:08:52.324Z,100519.75
2022-09-05T04:11:31.682Z,100518.91
2022-09-05T04:14:02.588Z,100516.84
2022-09-05T04:16:40.781Z,100518.56
2022-09-05T04:19:14.537Z,100515.06
2022-09-05T04:21:50.707Z,100516.22
2022-09-05T04:24:29.400Z,100527.88
2022-09-05T04:27:22.112Z,100518.88
2022-09-05T04:30:01.378Z,100517.03
2022-09-05T04:32:54.529Z,100517.22
2022-09-05T04:35:30.142Z,100526.91
2022-09-05T04:38:06.081Z,100534.50
2022-09-05T04:40:43.724Z,100530.53
2022-09-05T04:43:17.311Z,100540.25
2022-09-05T04:45:50.699Z,100542.09
2022-09-05T04:48:23.054Z,100542.00
2022-09-05T04:51:05.956Z,100540.25
2022-09-05T04:54:05.998Z,100543.88
2022-09-05T04:56:39.188Z,100550.59
2022-09-05T05:01:18.710Z,100554.34
2022-09-05T05:06:08.360Z,100549.88
2022-09-05T05:06:12.588Z,100559.00
2022-09-05T05:08:03.348Z,100560.06
2022-09-05T05:12:21.181Z,100560.97
2022-09-05T05:17:56.225Z,100562.47
2022-09-05T05:18:15.332Z,100559.47
2022-09-05T05:19:22.116Z,100561.59
2022-09-05T05:21:53.733Z,100563.75
2022-09-05T05:24:25.571Z,100566.94
2022-09-05T05:26:57.530Z,100568.03
2022-09-05T05:29:32.385Z,100572.41
2022-09-05T05:32:03.829Z,100582.97
2022-09-05T05:34:35.289Z,100576.31
2022-09-05T05:37:12.545Z,100575.06
2022-09-05T05:39:45.594Z,100574.53
2022-09-05T05:42:20.565Z,100581.66
2022-09-05T05:44:53.904Z,100585.28
2022-09-05T05:47:31.235Z,100584.06
2022-09-05T05:50:11.598Z,100583.41
2022-09-05T05:52:56.196Z,100588.59
2022-09-05T05:55:53.108Z,100584.75
2022-09-05T05:58:53.278Z,100584.09
2022-09-05T06:01:57.765Z,100601.22
2022-09-05T06:04:49.537Z,100599.81
2022-09-05T06:07:30.436Z,100598.28
2022-09-05T06:14:49.120Z,100593.03
2022-09-05T06:15:02.948Z,100595.47
2022-09-05T06:17:00.167Z,100580.63
2022-09-05T06:22:04.829Z,100586.59
2022-09-05T06:23:30.789Z,100582.00
2022-09-05T06:26:45.697Z,100577.47
2022-09-05T06:29:34.534Z,100575.22
2022-09-05T06:32:21.973Z,100562.22
2022-09-05T06:35:24.959Z,100569.72
2022-09-05T06:38:07.670Z,100555.34
2022-09-05T06:40:42.887Z,100557.72
2022-09-05T06:43:25.187Z,100557.00
2022-09-05T06:46:04.018Z,100551.03
2022-09-05T06:48:46.104Z,100555.25
2022-09-05T06:51:49.921Z,100551.00
2022-09-05T06:55:10.577Z,100551.69
2022-09-05T06:58:00.337Z,100546.00
2022-09-05T07:00:35.071Z,100546.97
2022-09-05T07:03:20.646Z,100542.41
2022-09-05T07:05:57.386Z,100531.22
2022-09-05T07:08:36.128Z,100538.72
2022-09-05T07:11:15.913Z,100532.69
2022-09-05T07:13:55.809Z,100537.50
2022-09-05T07:16:37.898Z,100531.28
2022-09-05T07:19:26.965Z,100520.97
2022-09-05T07:22:18.658Z,100535.66
2022-09-05T07:25:08.811Z,100537.34
2022-09-05T07:27:41.920Z,100541.97
2022-09-05T07:30:29.768Z,100553.16
2022-09-05T07:32:59.351Z,100548.19
2022-09-05T07:35:29.751Z,100554.00
2022-09-05T07:38:07.343Z,100542.00
2022-09-05T07:40:40.450Z,100552.28
2022-09-05T07:43:11.089Z,100539.78
2022-09-05T07:45:56.196Z,100539.25
2022-09-05T07:48:34.358Z,100547.59
2022-09-05T07:57:02.494Z,100548.28
2022-09-05T07:57:10.642Z,100550.28
2022-09-05T07:57:22.463Z,100550.34
2022-09-05T07:59:41.584Z,100549.78
2022-09-05T08:02:13.152Z,100546.56
2022-09-05T08:04:42.289Z,100549.16
2022-09-05T08:07:49.960Z,100544.75
2022-09-05T08:10:10.325Z,100552.59
2022-09-05T08:13:00.625Z,100559.63
2022-09-05T08:16:09.656Z,100556.59
2022-09-05T08:18:28.463Z,100559.41
2022-09-05T08:21:00.074Z,100559.66
2022-09-05T08:23:48.019Z,100550.56
2022-09-05T08:26:20.413Z,100551.00
2022-09-05T08:28:58.626Z,100543.66
2022-09-05T08:31:35.525Z,100544.47
2022-09-05T08:34:18.475Z,100542.91
2022-09-05T08:36:58.775Z,100539.75
2022-09-05T08:39:29.401Z,100551.78
2022-09-05T08:42:10.589Z,100543.75
2022-09-05T08:46:42.706Z,100537.28
2022-09-05T08:47:45.742Z,100542.72
2022-09-05T08:50:30.108Z,100546.53
2022-09-05T08:53:18.665Z,100535.72
2022-09-05T08:56:06.127Z,100544.06
2022-09-05T08:59:27.573Z,100531.72
2022-09-05T09:02:44.601Z,100541.47
2022-09-05T09:05:14.430Z,100524.44
2022-09-05T09:07:55.323Z,100525.53
2022-09-05T09:10:36.360Z,100524.53
2022-09-05T09:13:12.981Z,100524.59
2022-09-05T09:15:46.152Z,100527.19
2022-09-05T09:18:16.891Z,100526.03
2022-09-05T09:20:52.782Z,100530.78
2022-09-05T09:23:45.293Z,100514.69
2022-09-05T09:26:15.812Z,100522.25
2022-09-05T09:28:53.700Z,100515.09
2022-09-05T09:31:35.494Z,100513.81
2022-09-05T09:34:36.883Z,100510.53
2022-09-05T09:37:51.684Z,100518.75
2022-09-05T09:41:02.771Z,100515.00
2022-09-05T09:43:52.693Z,100518.63
2022-09-05T09:46:39.177Z,100505.53
2022-09-05T09:49:28.070Z,100516.50
2022-09-05T09:52:24.516Z,100511.47
2022-09-05T09:55:17.442Z,100508.78
2022-09-05T09:58:12.541Z,100504.53
2022-09-05T10:00:51.833Z,100502.06
2022-09-05T10:08:36.657Z,100503.56
2022-09-05T10:10:44.655Z,100499.97
2022-09-05T10:10:49.914Z,100494.72
2022-09-05T10:13:35.400Z,100502.22
2022-09-05T10:16:41.688Z,100485.72
2022-09-05T10:23:02.660Z,100476.91
2022-09-05T10:26:00.901Z,100478.25
2022-09-05T10:28:39.923Z,100478.38
2022-09-05T10:32:32.640Z,100482.13
2022-09-05T10:35:13.823Z,100475.56
2022-09-05T10:37:11.866Z,100469.97
2022-09-05T10:39:43.567Z,100464.38
2022-09-05T10:42:16.707Z,100465.13
2022-09-05T10:44:53.393Z,100464.81
2022-09-05T10:47:34.867Z,100455.72
2022-09-05T10:50:13.666Z,100450.91
2022-09-05T10:53:01.627Z,100441.56
2022-09-05T10:55:38.585Z,100448.31
2022-09-05T10:58:31.843Z,100436.78
2022-09-05T11:02:29.925Z,100438.25
2022-09-05T11:04:21.107Z,100440.47
2022-09-05T11:06:54.249Z,100434.78
2022-09-05T11:09:37.244Z,100426.66
2022-09-05T11:12:16.052Z,100433.25
2022-09-05T11:14:52.366Z,100424.50
2022-09-05T11:17:31.809Z,100425.81
2022-09-05T11:20:35.425Z,100424.16
2022-09-05T11:23:10.271Z,100429.88
2022-09-05T11:25:41.034Z,100418.25
2022-09-05T11:28:15.975Z,100414.53
2022-09-05T11:30:49.613Z,100412.53
2022-09-05T11:39:45.624Z,100402.03
2022-09-05T11:39:49.259Z,100396.78
2022-09-05T11:40:31.185Z,100400.09
2022-09-05T11:43:44.687Z,100400.97
2022-09-05T11:46:29.998Z,100403.19
2022-09-05T11:49:34.868Z,100399.72
2022-09-05T11:52:32.715Z,100393.09
2022-09-05T11:55:24.564Z,100394.97
2022-09-05T11:58:44.607Z,100394.53
2022-09-05T12:01:42.260Z,100395.38
2022-09-05T12:04:38.628Z,100394.19
2022-09-05T12:07:27.073Z,100391.03
2022-09-05T12:10:45.847Z,100382.16
2022-09-05T12:13:17.299Z,100371.44
2022-09-05T12:16:03.081Z,100378.41
2022-09-05T12:18:44.596Z,100375.13
2022-09-05T12:21:31.679Z,100368.97
2022-09-05T12:24:59.221Z,100361.44
2022-09-05T12:27:42.035Z,100360.63
2022-09-05T12:29:59.764Z,100364.75
2022-09-05T12:36:07.972Z,100356.16
2022-09-05T12:41:14.838Z,100354.19
2022-09-05T12:41:42.042Z,100354.69
2022-09-05T12:41:44.764Z,100342.81
2022-09-05T12:44:41.994Z,100337.25
2022-09-05T12:47:16.871Z,100337.72
2022-09-05T12:50:02.671Z,100338.22
2022-09-05T12:52:42.460Z,100342.59
2022-09-05T12:55:22.385Z,100335.16
2022-09-05T13:02:58.728Z,100332.34
2022-09-05T13:03:06.576Z,100333.47
2022-09-05T13:04:05.965Z,100332.91
2022-09-05T13:06:39.093Z,100322.94
2022-09-05T13:09:11.370Z,100322.00
2022-09-05T13:14:58.078Z,100325.97
2022-09-05T13:15:06.056Z,100323.88
2022-09-05T13:17:44.573Z,100307.09
2022-09-05T13:20:19.020Z,100308.19
2022-09-05T13:22:50.953Z,100312.06
2022-09-05T13:25:24.997Z,100302.78
2022-09-05T13:28:01.546Z,100307.25
2022-09-05T13:36:04.011Z,100321.56
2022-09-05T13:38:10.165Z,100307.25
2022-09-05T13:38:29.415Z,100310.00
2022-09-05T13:39:06.583Z,100319.13
2022-09-05T13:41:37.069Z,100320.31
2022-09-05T13:44:26.593Z,100305.25
2022-09-05T13:47:00.861Z,100304.69
2022-09-05T13:49:33.085Z,100299.63
2022-09-05T13:52:18.635Z,100295.38
2022-09-05T13:54:51.677Z,100293.06
2022-09-05T13:57:33.247Z,100294.03
2022-09-05T14:00:39.116Z,100285.38
2022-09-05T14:03:45.621Z,100288.03
2022-09-05T14:06:46.079Z,100290.41
2022-09-05T14:09:39.259Z,100285.81
2022-09-05T14:12:15.156Z,100281.94
2022-09-05T14:17:52.012Z,100276.41
2022-09-05T14:20:43.246Z,100282.09
2022-09-05T14:23:13.784Z,100283.41
2022-09-05T14:25:44.823Z,100280.59
2022-09-05T14:28:18.832Z,100269.69
2022-09-05T14:33:48.804Z,100268.44
2022-09-05T14:37:39.309Z,100268.78
2022-09-05T14:37:42.038Z,100275.16
2022-09-05T14:40:37.160Z,100267.00
2022-09-05T14:43:27.425Z,100263.94
2022-09-05T14:46:10.254Z,100256.91
2022-09-05T14:49:18.272Z,100262.09
2022-09-05T14:51:49.577Z,100257.81
2022-09-05T15:02:39.119Z,100264.06
2022-09-05T15:02:45.107Z,100253.34
2022-09-05T15:03:03.980Z,100261.19
2022-09-05T15:05:41.381Z,100257.13
2022-09-05T15:09:39.005Z,100253.31
2022-09-05T15:12:16.423Z,100255.56
2022-09-05T15:14:03.517Z,100255.78
2022-09-05T15:16:35.488Z,100240.78
2022-09-05T15:19:03.292Z,100241.69
2022-09-05T15:21:35.308Z,100232.19
2022-09-05T15:24:17.089Z,100236.88
2022-09-05T15:26:52.544Z,100226.97
2022-09-05T15:29:23.641Z,100229.31
2022-09-05T15:31:54.594Z,100227.38
2022-09-05T15:34:38.994Z,100225.06
2022-09-05T15:37:23.919Z,100219.63
2022-09-05T15:40:04.701Z,100214.47
2022-09-05T15:42:43.704Z,100209.28
2022-09-05T15:45:13.600Z,100212.19
2022-09-05T15:47:52.577Z,100216.47
2022-09-05T15:50:26.357Z,100211.84
2022-09-05T15:52:56.063Z,100202.97
2022-09-05T15:55:27.624Z,100203.16
2022-09-05T15:58:00.624Z,100199.66
2022-09-05T16:00:51.420Z,100202.25
2022-09-05T16:04:36.431Z,100199.25
2022-09-05T16:10:28.292Z,100199.63
2022-09-05T16:10:34.790Z,100197.69
2022-09-05T16:12:17.075Z,100197.34
2022-09-05T16:15:45.268Z,100192.19
2022-09-05T16:23:18.225Z,100199.22
2022-09-05T16:23:28.259Z,100185.31
2022-09-05T16:23:43.830Z,100192.28
2022-09-05T16:26:24.805Z,100186.53
2022-09-05T16:28:59.243Z,100185.69
2022-09-05T16:31:38.358Z,100178.72
2022-09-05T16:34:11.834Z,100184.56
2022-09-05T16:36:47.597Z,100180.06
2022-09-05T16:39:26.082Z,100180.56
2022-09-05T16:41:58.848Z,100178.97
2022-09-05T16:44:35.502Z,100171.28
2022-09-05T16:47:11.134Z,100167.81
2022-09-05T16:49:44.026Z,100173.28
2022-09-05T16:52:17.786Z,100168.50
2022-09-05T16:54:52.633Z,100166.00
2022-09-05T16:57:24.200Z,100161.28
2022-09-05T16:59:53.791Z,100159.78
2022-09-05T17:02:28.754Z,100162.88
2022-09-05T17:05:09.636Z,100147.44
2022-09-05T17:08:00.249Z,100150.50
2022-09-05T17:10:30.403Z,100145.06
2022-09-05T17:12:58.178Z,100150.34
2022-09-05T17:15:32.169Z,100150.28
2022-09-05T17:18:21.493Z,100147.63
2022-09-05T17:20:55.785Z,100144.13
2022-09-05T17:26:17.509Z,100148.94
2022-09-05T17:29:33.326Z,100142.19
2022-09-05T17:32:51.593Z,100144.28
2022-09-05T17:35:42.543Z,100146.56
2022-09-05T17:38:38.911Z,100151.91
2022-09-05T17:41:21.048Z,100138.25
2022-09-05T17:43:52.294Z,100139.41
2022-09-05T17:46:25.002Z,100136.75
2022-09-05T17:49:18.944Z,100135.69
2022-09-05T17:52:18.566Z,100140.75
2022-09-05T17:54:50.228Z,100143.13
2022-09-05T17:57:48.957Z,100140.56
2022-09-05T18:01:04.520Z,100154.41
2022-09-05T18:04:15.987Z,100155.06
2022-09-05T18:06:59.488Z,100167.16
2022-09-05T18:13:31.507Z,100162.34
2022-09-05T18:16:11.568Z,100167.97
2022-09-05T18:21:48.225Z,100167.03
2022-09-05T18:24:24.219Z,100173.06
2022-09-05T18:26:55.907Z,100179.34
2022-09-05T18:29:58.647Z,100190.06
2022-09-05T18:32:43.815Z,100181.63
2022-09-05T18:35:26.647Z,100172.28
2022-09-05T18:38:50.514Z,100186.88
2022-09-05T18:41:18.326Z,100196.28
2022-09-05T18:44:13.684Z,100194.97
2022-09-05T18:46:51.071Z,100195.25
2022-09-05T18:50:21.393Z,100194.69
2022-09-05T18:52:16.527Z,100200.72
2022-09-05T18:55:52.662Z,100199.91
2022-09-05T18:57:50.349Z,100205.69
2022-09-05T19:00:35.342Z,100197.53
2022-09-05T19:03:19.409Z,100204.69
2022-09-05T19:05:50.847Z,100207.72
2022-09-05T19:08:28.995Z,100192.38
2022-09-05T19:11:27.743Z,100200.34
2022-09-05T19:14:18.244Z,100200.63
2022-09-05T19:16:47.872Z,100206.16
2022-09-05T19:19:18.368Z,100205.91
2022-09-05T19:21:56.133Z,100201.56
2022-09-05T19:24:45.223Z,100198.25
2022-09-05T19:32:20.202Z,100198.25
2022-09-05T19:36:50.522Z,100190.31
2022-09-05T19:36:57.478Z,100203.72
2022-09-05T19:37:04.208Z,100197.44
2022-09-05T19:39:49.355Z,100192.53
2022-09-05T19:47:30.725Z,100195.56
2022-09-05T19:47:40.431Z,100190.66
2022-09-05T19:47:42.802Z,100184.34
2022-09-05T19:50:11.279Z,100179.47
2022-09-05T19:52:40.167Z,100185.75
2022-09-05T19:55:21.715Z,100181.09
2022-09-05T19:58:14.951Z,100180.28
2022-09-05T20:00:41.620Z,100187.94
2022-09-05T20:03:10.237Z,100181.38
2022-09-05T20:05:42.041Z,100180.31
2022-09-05T20:08:29.874Z,100183.28
2022-09-05T20:11:01.933Z,100178.34
2022-09-05T20:13:29.675Z,100189.00
2022-09-05T20:16:01.842Z,100183.53
2022-09-05T20:18:39.427Z,100187.09
2022-09-05T20:21:10.994Z,100179.16
2022-09-05T20:23:41.925Z,100180.53
2022-09-05T20:26:11.022Z,100184.63
2022-09-05T20:28:41.822Z,100185.44
2022-09-05T20:31:15.886Z,100191.19
2022-09-05T20:33:51.651Z,100190.63
2022-09-05T20:43:18.808Z,100185.41
2022-09-05T20:43:21.748Z,100182.41
2022-09-05T20:43:28.947Z,100179.66
2022-09-05T20:44:52.623Z,100184.03
2022-09-05T20:54:08.046Z,100182.41
2022-09-05T20:54:10.059Z,100184.31
2022-09-05T20:54:27.329Z,100179.09
2022-09-05T20:56:10.960Z,100194.41
2022-09-05T20:58:40.038Z,100191.66
2022-09-05T21:01:21.132Z,100190.03
2022-09-05T21:03:57.201Z,100193.28
2022-09-05T21:06:29.451Z,100192.75
2022-09-05T21:09:16.095Z,100193.72
2022-09-05T21:11:52.706Z,100195.59
2022-09-05T21:14:22.130Z,100197.28
2022-09-05T21:16:57.135Z,100200.25
2022-09-05T21:19:30.495Z,100202.97
2022-09-05T21:22:07.143Z,100208.44
2022-09-05T21:24:35.135Z,100207.06
2022-09-05T21:27:17.466Z,100197.25
2022-09-05T21:29:45.593Z,100197.22
2022-09-05T21:32:30.235Z,100197.00
2022-09-05T21:35:15.312Z,100194.00
2022-09-05T21:37:55.895Z,100204.72
2022-09-05T21:40:23.822Z,100203.94
2022-09-05T21:46:42.870Z,100201.94
2022-09-05T21:47:38.729Z,100201.38
2022-09-05T21:48:28.553Z,100199.41
2022-09-05T21:51:00.438Z,100203.78
2022-09-05T21:54:54.675Z,100205.38
2022-09-05T21:59:16.895Z,100211.31
2022-09-05T21:59:30.076Z,100209.19
2022-09-05T22:01:53.313Z,100198.16
2022-09-05T22:04:22.411Z,100207.13
2022-09-05T22:06:53.263Z,100197.03
2022-09-05T22:09:22.212Z,100194.84
2022-09-05T22:11:51.147Z,100183.97
2022-09-05T22:14:19.031Z,100189.16
2022-09-05T22:16:50.204Z,100183.66
2022-09-05T22:19:22.809Z,100188.56
2022-09-05T22:21:54.660Z,100186.91
2022-09-05T22:24:24.636Z,100180.09
2022-09-05T22:27:12.715Z,100172.25
2022-09-05T22:29:40.855Z,100176.31
2022-09-05T22:32:08.934Z,100158.81
2022-09-05T22:34:36.645Z,100164.78
2022-09-05T22:37:05.813Z,100157.63
2022-09-05T22:39:37.529Z,100160.06
2022-09-05T22:42:10.172Z,100162.47
2022-09-05T22:44:38.942Z,100165.53
2022-09-05T22:47:06.879Z,100164.97
2022-09-05T22:49:36.541Z,100165.19
2022-09-05T22:52:07.429Z,100168.38
2022-09-05T22:54:35.150Z,100166.19
2022-09-05T22:57:03.311Z,100171.44
2022-09-05T22:59:31.096Z,100166.72
2022-09-05T23:01:58.783Z,100166.66
2022-09-05T23:04:26.771Z,100168.78
2022-09-05T23:06:54.661Z,100171.25
2022-09-05T23:09:23.765Z,100171.00
2022-09-05T23:11:51.470Z,100166.63
2022-09-05T23:14:19.079Z,100161.59
2022-09-05T23:16:46.659Z,100166.56
2022-09-05T23:19:14.231Z,100167.19
2022-09-05T23:21:41.806Z,100171.00
2022-09-05T23:24:09.442Z,100180.19
2022-09-05T23:26:38.340Z,100174.16
2022-09-05T23:29:05.922Z,100181.28
2022-09-05T23:31:33.649Z,100179.84
2022-09-05T23:34:01.370Z,100184.38
2022-09-05T23:36:29.018Z,100180.81
2022-09-05T23:38:56.797Z,100177.81
2022-09-05T23:41:24.462Z,100173.50
2022-09-05T23:43:53.527Z,100174.06
2022-09-05T23:46:21.448Z,100175.22
2022-09-05T23:48:49.261Z,100178.41
2022-09-05T23:51:17.331Z,100176.22
2022-09-05T23:53:46.081Z,100175.69
2022-09-05T23:56:13.832Z,100172.09
2022-09-05T23:58:41.495Z,100157.38
